createdAt,value
2019-01-14T00:00:25.213Z,2.03
2019-01-14T00:02:56.330Z,1.43
2019-01-14T00:05:26.933Z,2.30
2019-01-14T00:07:57.453Z,1.30
2019-01-14T00:10:28.394Z,1.30
2019-01-14T00:12:58.948Z,1.13
2019-01-14T00:15:29.392Z,1.40
2019-01-14T00:18:00.001Z,1.30
2019-01-14T00:20:30.576Z,1.27
2019-01-14T00:23:01.070Z,1.03
2019-01-14T00:25:31.513Z,1.30
2019-01-14T00:28:01.988Z,1.33
2019-01-14T00:30:32.461Z,1.37
2019-01-14T00:33:02.984Z,1.20
2019-01-14T00:35:33.673Z,0.90
2019-01-14T00:38:04.480Z,1.20
2019-01-14T00:40:35.042Z,1.27
2019-01-14T00:43:05.606Z,1.10
2019-01-14T00:45:37.166Z,1.00
2019-01-14T00:48:07.916Z,0.90
2019-01-14T00:50:38.403Z,1.00
2019-01-14T00:53:08.947Z,1.20
2019-01-14T00:55:39.474Z,1.07
2019-01-14T00:58:09.990Z,0.90
2019-01-14T01:00:40.448Z,0.83
2019-01-14T01:03:11.018Z,0.80
2019-01-14T01:05:41.679Z,0.90
2019-01-14T01:08:12.327Z,0.90
2019-01-14T01:10:43.082Z,0.90
2019-01-14T01:13:13.833Z,0.90
2019-01-14T01:15:44.724Z,0.90
2019-01-14T01:18:15.696Z,0.80
2019-01-14T01:20:47.454Z,1.00
2019-01-14T01:23:18.252Z,0.87
2019-01-14T01:25:48.945Z,0.80
2019-01-14T01:28:19.570Z,0.90
2019-01-14T01:30:50.079Z,0.90
2019-01-14T01:33:20.664Z,0.90
2019-01-14T01:35:51.142Z,0.90
2019-01-14T01:38:21.615Z,1.07
2019-01-14T01:40:52.085Z,1.30
2019-01-14T01:43:22.649Z,1.30
2019-01-14T01:45:53.099Z,1.10
2019-01-14T01:48:23.578Z,1.20
2019-01-14T01:50:54.033Z,0.90
2019-01-14T01:53:24.517Z,1.03
2019-01-14T01:55:55.338Z,1.20
2019-01-14T01:58:25.810Z,1.50
2019-01-14T02:00:56.254Z,1.47
2019-01-14T02:03:26.723Z,1.40
2019-01-14T02:05:57.155Z,1.40
2019-01-14T02:08:28.614Z,1.40
2019-01-14T02:10:59.061Z,1.20
2019-01-14T02:13:29.560Z,1.07
2019-01-14T02:15:59.997Z,1.00
2019-01-14T02:18:30.484Z,1.00
2019-01-14T02:21:00.934Z,0.90
2019-01-14T02:23:31.651Z,0.90
2019-01-14T02:26:02.113Z,1.00
2019-01-14T02:28:32.575Z,1.20
2019-01-14T02:31:03.050Z,1.10
2019-01-14T02:33:33.520Z,1.30
2019-01-14T02:36:04.757Z,0.90
2019-01-14T02:38:35.217Z,1.20
2019-01-14T02:41:05.929Z,1.10
2019-01-14T02:43:36.356Z,1.20
2019-01-14T02:46:06.802Z,1.10
2019-01-14T02:48:37.245Z,1.13
2019-01-14T02:51:07.702Z,1.13
2019-01-14T02:53:38.137Z,0.93
2019-01-14T02:56:08.609Z,0.97
2019-01-14T02:58:39.075Z,1.00
2019-01-14T03:01:09.854Z,1.17
2019-01-14T03:03:40.604Z,0.80
2019-01-14T03:06:11.042Z,0.90
2019-01-14T03:08:41.794Z,0.90
2019-01-14T03:11:12.237Z,0.90
2019-01-14T03:13:42.689Z,1.00
2019-01-14T03:16:13.168Z,0.50
2019-01-14T03:18:43.722Z,0.40
2019-01-14T03:21:14.165Z,0.50
2019-01-14T03:23:44.723Z,0.40
2019-01-14T03:26:15.708Z,0.40
2019-01-14T03:28:46.171Z,0.30
2019-01-14T03:31:16.622Z,0.30
2019-01-14T03:33:47.084Z,0.30
2019-01-14T03:36:17.530Z,0.33
2019-01-14T03:38:48.017Z,0.33
2019-01-14T03:41:18.493Z,0.30
2019-01-14T03:43:48.965Z,0.30
2019-01-14T03:46:19.398Z,0.40
2019-01-14T03:48:49.862Z,0.40
2019-01-14T03:51:20.313Z,0.30
2019-01-14T03:53:50.769Z,0.40
2019-01-14T03:56:21.840Z,0.40
2019-01-14T03:58:52.309Z,0.30
2019-01-14T04:01:23.090Z,0.40
2019-01-14T04:03:53.559Z,0.60
2019-01-14T04:06:24.025Z,0.30
2019-01-14T04:08:54.471Z,0.40
2019-01-14T04:11:24.944Z,0.40
2019-01-14T04:13:55.386Z,0.30
2019-01-14T04:16:25.852Z,0.30
2019-01-14T04:18:56.590Z,0.67
2019-01-14T04:21:27.048Z,0.50
2019-01-14T04:23:57.487Z,0.30
2019-01-14T04:26:28.274Z,0.60
2019-01-14T04:28:58.743Z,0.40
2019-01-14T04:31:29.225Z,0.53
2019-01-14T04:33:59.681Z,0.77
2019-01-14T04:36:30.136Z,0.50
2019-01-14T04:39:01.331Z,0.53
2019-01-14T04:41:31.781Z,0.60
2019-01-14T04:44:02.265Z,1.00
2019-01-14T04:46:32.840Z,0.80
2019-01-14T04:49:03.301Z,1.07
2019-01-14T04:51:33.804Z,1.10
2019-01-14T04:54:04.365Z,1.50
2019-01-14T04:56:34.849Z,1.00
2019-01-14T04:59:05.350Z,1.00
2019-01-14T05:01:35.834Z,1.30
2019-01-14T05:04:06.326Z,1.70
2019-01-14T05:06:36.840Z,1.10
2019-01-14T05:09:09.490Z,1.43
2019-01-14T05:11:40.527Z,1.50
2019-01-14T05:14:11.063Z,1.53
2019-01-14T05:16:41.517Z,1.30
2019-01-14T05:19:12.489Z,1.47
2019-01-14T05:21:42.919Z,1.25
2019-01-14T05:24:13.377Z,1.53
2019-01-14T05:26:44.154Z,1.20
2019-01-14T05:29:14.661Z,1.27
2019-01-14T05:31:45.117Z,1.60
2019-01-14T05:34:15.610Z,1.40
2019-01-14T05:36:46.192Z,1.57
2019-01-14T05:39:16.633Z,1.33
2019-01-14T05:41:47.210Z,1.33
2019-01-14T05:44:17.658Z,1.30
2019-01-14T05:46:48.131Z,1.40
2019-01-14T05:49:18.602Z,1.50
2019-01-14T05:51:49.104Z,1.43
2019-01-14T05:54:19.550Z,1.67
2019-01-14T05:56:50.028Z,1.83
2019-01-14T05:59:20.754Z,1.50
2019-01-14T06:01:51.315Z,2.00
2019-01-14T06:04:21.752Z,2.07
2019-01-14T06:06:52.242Z,2.27
2019-01-14T06:09:23.183Z,1.67
2019-01-14T06:11:53.638Z,2.20
2019-01-14T06:14:24.093Z,2.07
2019-01-14T06:16:54.631Z,3.23
2019-01-14T06:19:25.961Z,2.90
2019-01-14T06:21:56.655Z,2.70
2019-01-14T06:24:27.111Z,1.70
2019-01-14T06:26:57.616Z,1.73
2019-01-14T06:29:28.150Z,1.30
2019-01-14T06:31:59.729Z,1.60
2019-01-14T06:34:30.184Z,1.50
2019-01-14T06:37:00.945Z,1.40
2019-01-14T06:39:31.619Z,1.90
2019-01-14T06:42:02.076Z,1.70
2019-01-14T06:44:32.522Z,2.33
2019-01-14T06:47:02.998Z,1.70
2019-01-14T06:49:40.100Z,1.93
2019-01-14T06:52:10.568Z,2.03
2019-01-14T06:54:41.330Z,2.10
2019-01-14T06:57:12.335Z,2.23
2019-01-14T06:59:42.803Z,2.00
2019-01-14T07:02:13.329Z,2.20
2019-01-14T07:04:43.847Z,2.80
2019-01-14T07:07:14.314Z,3.07
2019-01-14T07:10:00.200Z,3.43
2019-01-14T07:12:30.677Z,3.87
2019-01-14T07:15:01.142Z,3.47
2019-01-14T07:17:31.645Z,2.80
2019-01-14T07:20:02.092Z,3.00
2019-01-14T07:22:32.532Z,2.90
2019-01-14T07:25:34.817Z,3.17
2019-01-14T07:28:05.303Z,2.57
2019-01-14T07:30:35.778Z,3.17
2019-01-14T07:33:06.232Z,3.40
2019-01-14T07:35:36.668Z,3.10
2019-01-14T07:38:08.446Z,2.97
2019-01-14T07:40:38.955Z,3.10
2019-01-14T07:43:09.413Z,3.33
2019-01-14T07:45:39.915Z,3.63
2019-01-14T07:48:10.392Z,3.20
2019-01-14T07:50:40.933Z,3.10
2019-01-14T07:53:11.432Z,3.10
2019-01-14T07:55:42.302Z,3.53
2019-01-14T07:58:12.859Z,2.80
2019-01-14T08:00:43.414Z,2.90
2019-01-14T08:03:13.879Z,8.30
2019-01-14T08:05:44.382Z,2.67
2019-01-14T08:08:14.955Z,2.40
2019-01-14T08:10:45.473Z,2.83
2019-01-14T08:13:15.984Z,3.20
2019-01-14T08:15:46.793Z,3.23
2019-01-14T08:18:17.538Z,3.40
2019-01-14T08:20:48.343Z,3.80
2019-01-14T08:23:18.820Z,2.90
2019-01-14T08:25:49.724Z,3.23
2019-01-14T08:31:42.935Z,3.63
2019-01-14T08:34:20.921Z,3.83
2019-01-14T08:36:50.362Z,3.10
2019-01-14T08:39:21.529Z,3.43
2019-01-14T08:42:08.069Z,2.80
2019-01-14T08:45:33.398Z,3.93
2019-01-14T08:52:11.930Z,2.93
2019-01-14T08:54:54.812Z,3.10
2019-01-14T08:57:54.613Z,2.70
2019-01-14T09:00:45.558Z,3.33
2019-01-14T09:03:16.958Z,3.00
2019-01-14T09:06:56.870Z,3.47
2019-01-14T09:08:54.677Z,2.67
2019-01-14T09:11:31.084Z,2.90
2019-01-14T09:14:28.116Z,2.50
2019-01-14T09:17:14.385Z,2.77
2019-01-14T09:19:47.687Z,3.20
2019-01-14T09:22:30.794Z,2.60
2019-01-14T09:25:01.634Z,2.20
2019-01-14T09:27:35.592Z,2.40
2019-01-14T09:30:13.509Z,2.50
2019-01-14T09:32:44.230Z,2.67
2019-01-14T09:35:21.422Z,2.40
2019-01-14T09:37:55.281Z,2.23
2019-01-14T09:40:32.019Z,1.80
2019-01-14T09:43:17.041Z,2.40
2019-01-14T09:46:04.207Z,1.90
2019-01-14T09:49:02.640Z,1.70
2019-01-14T09:51:50.714Z,2.10
2019-01-14T09:55:07.859Z,2.53
2019-01-14T09:57:39.289Z,1.77
2019-01-14T10:00:23.337Z,1.37
2019-01-14T10:03:01.024Z,1.97
2019-01-14T10:05:53.159Z,1.93
2019-01-14T10:08:42.859Z,2.53
2019-01-14T10:11:10.180Z,2.00
2019-01-14T10:13:41.317Z,1.77
2019-01-14T10:16:12.578Z,1.70
2019-01-14T10:18:43.584Z,1.80
2019-01-14T10:21:14.579Z,1.67
2019-01-14T10:23:45.497Z,1.60
2019-01-14T10:26:33.402Z,1.40
2019-01-14T10:29:03.701Z,1.70
2019-01-14T10:31:34.822Z,2.03
2019-01-14T10:34:05.845Z,1.77
2019-01-14T10:36:36.850Z,2.20
2019-01-14T10:39:08.869Z,1.73
2019-01-14T10:41:40.023Z,1.50
2019-01-14T10:44:11.217Z,2.03
2019-01-14T10:50:27.448Z,1.63
2019-01-14T10:52:58.890Z,1.77
2019-01-14T10:55:29.890Z,2.10
2019-01-14T11:01:38.720Z,2.00
2019-01-14T11:04:09.559Z,2.00
2019-01-14T11:06:40.479Z,2.53
2019-01-14T11:09:15.070Z,2.50
2019-01-14T11:11:46.107Z,2.00
2019-01-14T11:14:17.138Z,2.00
2019-01-14T11:16:49.266Z,2.07
2019-01-14T11:19:21.636Z,2.27
2019-01-14T11:21:52.643Z,2.00
2019-01-14T11:24:24.897Z,1.80
2019-01-14T11:27:01.680Z,1.80
2019-01-14T11:29:51.850Z,2.20
2019-01-14T11:32:23.557Z,1.27
2019-01-14T11:34:54.538Z,1.13
2019-01-14T11:37:48.676Z,1.00
2019-01-14T11:40:26.666Z,1.20
2019-01-14T11:42:57.675Z,1.27
2019-01-14T11:45:28.706Z,1.23
2019-01-14T11:48:00.994Z,1.70
2019-01-14T11:50:33.806Z,1.70
2019-01-14T11:53:15.330Z,1.93
2019-01-14T11:55:55.225Z,2.27
2019-01-14T11:58:31.260Z,2.70
2019-01-14T12:01:09.955Z,2.90
2019-01-14T12:03:45.551Z,3.13
2019-01-14T12:06:23.893Z,2.83
2019-01-14T12:09:01.905Z,3.10
2019-01-14T12:11:45.765Z,3.57
2019-01-14T12:14:18.679Z,3.50
2019-01-14T12:16:56.267Z,3.20
2019-01-14T12:19:30.291Z,2.87
2019-01-14T12:22:02.758Z,3.23
2019-01-14T12:24:53.442Z,3.10
2019-01-14T12:27:35.438Z,3.23
2019-01-14T12:30:11.456Z,3.20
2019-01-14T12:32:43.995Z,2.70
2019-01-14T12:35:32.039Z,3.80
2019-01-14T12:38:05.585Z,3.83
2019-01-14T12:40:40.858Z,3.20
2019-01-14T12:43:12.798Z,2.67
2019-01-14T12:45:56.388Z,2.98
2019-01-14T12:56:37.695Z,2.60
2019-01-14T13:00:35.238Z,3.00
2019-01-14T13:02:31.810Z,2.80
2019-01-14T13:16:37.726Z,2.50
2019-01-14T13:19:16.766Z,2.87
2019-01-14T13:30:00.445Z,2.83
2019-01-14T13:32:31.623Z,3.27
2019-01-14T13:35:02.272Z,2.67
2019-01-14T13:37:32.959Z,2.33
2019-01-14T13:40:03.871Z,2.17
2019-01-14T13:43:40.134Z,2.00
2019-01-14T13:50:09.852Z,3.17
2019-01-14T13:52:40.413Z,2.90
2019-01-14T14:02:00.547Z,2.00
2019-01-14T14:04:31.671Z,2.50
2019-01-14T14:07:02.337Z,2.17
2019-01-14T14:09:32.917Z,2.33
2019-01-14T14:12:05.630Z,2.83
2019-01-14T14:14:36.326Z,1.90
2019-01-14T14:17:07.258Z,1.93
2019-01-14T14:19:38.155Z,2.60
2019-01-14T14:22:11.776Z,2.00
2019-01-14T14:24:41.106Z,2.57
2019-01-14T14:27:11.717Z,2.90
2019-01-14T14:29:42.401Z,2.00
2019-01-14T14:32:13.076Z,2.50
2019-01-14T14:34:43.600Z,2.20
2019-01-14T14:37:14.304Z,2.13
2019-01-14T14:39:48.483Z,2.70
2019-01-14T14:42:17.170Z,2.10
2019-01-14T14:44:47.726Z,2.37
2019-01-14T14:47:18.188Z,2.63
2019-01-14T14:49:49.518Z,2.17
2019-01-14T14:52:20.154Z,2.43
2019-01-14T14:54:51.186Z,2.10
2019-01-14T14:57:21.994Z,2.27
2019-01-14T14:59:52.683Z,2.50
2019-01-14T15:02:23.366Z,2.17
2019-01-14T15:04:54.049Z,2.03
2019-01-14T15:07:24.716Z,2.33
2019-01-14T15:09:55.916Z,2.60
2019-01-14T15:12:26.689Z,2.57
2019-01-14T15:14:57.654Z,2.20
2019-01-14T15:17:28.820Z,2.80
2019-01-14T15:19:59.446Z,2.03
2019-01-14T15:22:30.225Z,2.80
2019-01-14T15:25:27.706Z,2.20
2019-01-14T15:31:45.939Z,1.87
2019-01-14T15:34:17.048Z,2.43
2019-01-14T15:36:55.220Z,2.27
2019-01-14T15:39:26.245Z,1.97
2019-01-14T15:42:13.256Z,2.60
2019-01-14T15:45:19.632Z,2.20
2019-01-14T15:47:58.101Z,2.30
2019-01-14T15:50:30.539Z,2.20
2019-01-14T15:53:01.670Z,2.33
2019-01-14T15:55:39.969Z,2.08
2019-01-14T15:58:18.794Z,2.33
2019-01-14T16:00:49.533Z,2.37
2019-01-14T16:03:22.412Z,2.23
2019-01-14T16:05:53.650Z,2.20
2019-01-14T16:08:24.524Z,1.90
2019-01-14T16:10:59.783Z,2.33
2019-01-14T16:13:57.498Z,1.93
2019-01-14T16:16:29.631Z,2.20
2019-01-14T16:19:17.589Z,2.20
2019-01-14T16:22:00.816Z,2.03
2019-01-14T16:24:33.740Z,2.17
2019-01-14T16:27:06.995Z,2.17
2019-01-14T16:29:43.641Z,2.13
2019-01-14T16:32:48.483Z,2.90
2019-01-14T16:35:20.143Z,2.50
2019-01-14T16:37:53.463Z,2.50
2019-01-14T16:40:24.773Z,2.53
2019-01-14T16:42:56.256Z,2.50
2019-01-14T16:46:20.669Z,3.70
2019-01-14T16:48:54.981Z,2.30
2019-01-14T16:51:30.518Z,3.13
2019-01-14T16:54:08.198Z,2.10
2019-01-14T16:57:03.357Z,3.00
2019-01-14T16:59:35.421Z,2.57
2019-01-14T17:02:19.485Z,2.23
2019-01-14T17:04:55.427Z,2.30
2019-01-14T17:07:30.250Z,2.80
2019-01-14T17:10:25.022Z,2.63
2019-01-14T17:12:53.435Z,2.00
2019-01-14T17:16:01.373Z,2.30
2019-01-14T17:19:25.766Z,2.10
2019-01-14T17:23:01.015Z,1.93
2019-01-14T17:25:46.273Z,2.90
2019-01-14T17:28:17.850Z,1.87
2019-01-14T17:30:48.790Z,1.83
2019-01-14T17:33:19.339Z,1.67
2019-01-14T17:35:50.207Z,1.63
2019-01-14T17:38:21.086Z,1.70
2019-01-14T17:41:10.231Z,2.07
2019-01-14T17:43:40.957Z,2.00
2019-01-14T17:46:11.547Z,2.20
2019-01-14T17:48:42.203Z,2.00
2019-01-14T17:51:13.171Z,2.03
2019-01-14T17:53:44.608Z,1.97
2019-01-14T17:56:15.300Z,1.90
2019-01-14T17:58:45.886Z,2.20
2019-01-14T18:01:16.498Z,2.10
2019-01-14T18:03:47.372Z,1.70
2019-01-14T18:06:41.665Z,2.03
2019-01-14T18:09:12.606Z,2.40
2019-01-14T18:11:43.499Z,2.20
2019-01-14T18:14:14.171Z,2.37
2019-01-14T18:16:44.741Z,1.90
2019-01-14T18:19:15.537Z,1.97
2019-01-14T18:21:47.211Z,2.27
2019-01-14T18:24:17.797Z,2.00
2019-01-14T18:26:48.302Z,2.13
2019-01-14T18:29:18.845Z,2.10
2019-01-14T18:31:49.459Z,2.40
2019-01-14T18:34:20.027Z,2.17
2019-01-14T18:36:50.496Z,2.17
2019-01-14T18:39:21.027Z,2.30
2019-01-14T18:41:51.809Z,1.80
2019-01-14T18:48:29.985Z,2.17
2019-01-14T18:51:00.783Z,3.17
2019-01-14T18:53:31.847Z,2.30
2019-01-14T18:56:06.002Z,2.77
2019-01-14T18:58:36.562Z,2.07
2019-01-14T19:01:07.256Z,2.20
2019-01-14T19:03:38.108Z,3.23
2019-01-14T19:06:09.269Z,3.03
2019-01-14T19:08:39.906Z,2.40
2019-01-14T19:11:11.139Z,2.13
2019-01-14T19:13:41.832Z,2.30
2019-01-14T19:16:12.621Z,2.00
2019-01-14T19:18:43.158Z,2.40
2019-01-14T19:21:13.752Z,2.73
2019-01-14T19:23:44.482Z,2.67
2019-01-14T19:26:15.276Z,2.50
2019-01-14T19:28:47.116Z,2.70
2019-01-14T19:31:17.843Z,2.50
2019-01-14T19:33:48.766Z,3.80
2019-01-14T19:36:19.355Z,3.23
2019-01-14T19:38:49.955Z,3.17
2019-01-14T19:41:20.745Z,2.10
2019-01-14T19:43:51.261Z,2.37
2019-01-14T19:46:24.062Z,1.90
2019-01-14T19:48:54.531Z,1.43
2019-01-14T19:51:25.005Z,1.20
2019-01-14T19:53:57.885Z,1.17
2019-01-14T19:56:30.130Z,1.00
2019-01-14T19:59:00.629Z,0.70
2019-01-14T20:01:31.178Z,1.10
2019-01-14T20:04:01.715Z,0.80
2019-01-14T20:06:32.170Z,0.80
2019-01-14T20:09:02.819Z,0.90
2019-01-14T20:11:33.379Z,0.83
2019-01-14T20:14:03.920Z,0.70
2019-01-14T20:16:35.199Z,0.80
2019-01-14T20:19:05.712Z,1.13
2019-01-14T20:21:36.241Z,0.60
2019-01-14T20:24:06.870Z,0.57
2019-01-14T20:26:38.406Z,1.30
2019-01-14T20:29:08.937Z,1.80
2019-01-14T20:31:39.480Z,2.17
2019-01-14T20:34:10.070Z,1.90
2019-01-14T20:36:40.853Z,2.70
2019-01-14T20:39:11.430Z,3.53
2019-01-14T20:41:41.991Z,3.50
2019-01-14T20:44:12.662Z,3.73
2019-01-14T20:46:43.203Z,3.03
2019-01-14T20:49:36.111Z,2.80
2019-01-14T20:52:06.853Z,3.10
2019-01-14T20:54:37.469Z,4.37
2019-01-14T20:57:08.026Z,4.27
2019-01-14T20:59:38.754Z,4.80
2019-01-14T21:02:14.593Z,4.27
2019-01-14T21:04:45.145Z,4.57
2019-01-14T21:07:16.047Z,3.23
2019-01-14T21:09:46.641Z,2.77
2019-01-14T21:12:17.568Z,3.80
2019-01-14T21:14:48.171Z,3.60
2019-01-14T21:17:19.166Z,2.30
2019-01-14T21:19:49.676Z,2.87
2019-01-14T21:22:20.279Z,2.60
2019-01-14T21:24:51.194Z,2.50
2019-01-14T21:27:21.746Z,3.30
2019-01-14T21:29:52.311Z,3.27
2019-01-14T21:32:22.792Z,2.60
2019-01-14T21:34:53.279Z,3.43
2019-01-14T21:37:23.829Z,3.50
2019-01-14T21:39:54.702Z,3.20
2019-01-14T21:42:25.505Z,3.67
2019-01-14T21:44:56.039Z,4.13
2019-01-14T21:47:32.644Z,3.90
2019-01-14T21:49:59.582Z,3.83
2019-01-14T21:52:30.540Z,3.83
2019-01-14T21:55:01.049Z,4.67
2019-01-14T21:57:31.545Z,3.00
2019-01-14T22:00:02.243Z,4.17
2019-01-14T22:02:34.725Z,3.33
2019-01-14T22:05:06.328Z,3.20
2019-01-14T22:07:36.897Z,3.20
2019-01-14T22:10:10.434Z,2.60
2019-01-14T22:12:41.068Z,2.43
2019-01-14T22:15:11.685Z,2.80
2019-01-14T22:17:42.239Z,2.67
2019-01-14T22:20:20.763Z,2.70
2019-01-14T22:22:51.321Z,2.80
2019-01-14T22:25:21.899Z,3.10
2019-01-14T22:27:52.429Z,3.30
2019-01-14T22:30:31.418Z,2.90
2019-01-14T22:33:01.918Z,3.43
2019-01-14T22:35:32.365Z,3.80
2019-01-14T22:38:03.036Z,3.73
2019-01-14T22:40:33.632Z,4.00
2019-01-14T22:43:05.073Z,4.30
2019-01-14T22:45:35.531Z,4.87
2019-01-14T22:48:06.596Z,5.20
2019-01-14T22:50:37.115Z,4.47
2019-01-14T22:53:12.638Z,4.80
2019-01-14T22:55:43.137Z,4.93
2019-01-14T22:58:13.737Z,5.27
2019-01-14T23:01:14.564Z,5.10
2019-01-14T23:03:47.624Z,5.30
2019-01-14T23:06:18.103Z,5.50
2019-01-14T23:08:48.814Z,5.73
2019-01-14T23:11:19.286Z,5.37
2019-01-14T23:13:50.187Z,5.13
2019-01-14T23:16:20.759Z,5.20
2019-01-14T23:18:51.293Z,5.70
2019-01-14T23:21:21.756Z,5.90
2019-01-14T23:23:52.249Z,6.17
2019-01-14T23:26:22.725Z,5.77
2019-01-14T23:28:53.562Z,6.00
2019-01-14T23:31:24.485Z,5.93
2019-01-14T23:33:55.130Z,7.60
2019-01-14T23:36:25.559Z,6.27
2019-01-14T23:38:56.338Z,5.63
2019-01-14T23:41:27.107Z,6.17
2019-01-14T23:43:57.674Z,6.27
2019-01-14T23:46:28.284Z,5.67
2019-01-14T23:48:58.991Z,5.80
2019-01-14T23:51:29.599Z,5.90
2019-01-14T23:54:00.194Z,5.67
2019-01-14T23:56:31.212Z,6.40
2019-01-14T23:59:02.002Z,5.60
